sim
Sign-in with your pilot id or email,
or register
Callsign
Passwort

Schedule Details

Flight Number: RYR6303 (3)
Departure: Fuerteventura Airport (GCFV) at 10:10
Arrival: Barcelona El Prat Airport (LEBL) at 13:20
Route: Ryanair Passenger Schedule. Enter filed route here before submitting Pirep.

Weather Information
Getting current METAR information for GCFV 172200Z 03007KT CAVOK 24/20 Q1013
Getting current METAR information for LEBL 172200Z 00000KT 9999 FEW015 24/21 Q1014 NOSIG

Schedule Frequency

Route Map